Time;durP1;ratioP1;P1;durP2;ratioP2;P2;SDS_P1;SDS_P2;PMS_P1;PMS_P2;Temp;Humidity;BMP_temperature;BMP_pressure;BME280_temperature;BME280_humidity;BME280_pressure;Samples;Min_cycle;Max_cycle;Signal;HPM_P1;HPM_P2
2021/12/28 00:02:00;;;;;;;5.18;1.85;;;8.20;99.90;;;;;;5076682;28;20385;-65
2021/12/28 00:04:26;;;;;;;3.10;1.23;;;8.20;99.90;;;;;;5077436;28;20113;-65
2021/12/28 00:06:52;;;;;;;2.83;1.50;;;8.30;99.90;;;;;;5079879;28;20109;-65
2021/12/28 00:09:17;;;;;;;5.60;1.88;;;8.30;99.90;;;;;;5084423;28;20035;-66
2021/12/28 00:11:43;;;;;;;3.45;1.30;;;8.30;99.90;;;;;;5086681;28;20439;-65
2021/12/28 00:14:09;;;;;;;3.10;1.50;;;8.40;99.90;;;;;;5069119;28;20013;-65
2021/12/28 00:19:18;;;;;;;4.82;1.85;;;8.30;99.90;;;;;;5075814;28;20083;-65
2021/12/28 00:21:44;;;;;;;4.70;1.88;;;8.30;99.90;;;;;;5072275;28;20500;-65
2021/12/28 00:24:10;;;;;;;3.63;1.33;;;8.40;99.90;;;;;;5067945;28;20036;-65
2021/12/28 00:26:35;;;;;;;3.85;1.58;;;8.50;99.90;;;;;;5069512;28;20020;-65
2021/12/28 00:29:01;;;;;;;4.15;1.48;;;8.30;99.90;;;;;;5069760;28;20518;-65
2021/12/28 00:31:26;;;;;;;7.57;1.23;;;8.30;99.90;;;;;;5071976;28;20040;-65
2021/12/28 00:33:53;;;;;;;8.25;2.05;;;8.60;99.90;;;;;;5078734;28;20095;-65
2021/12/28 00:36:20;;;;;;;4.88;2.13;;;8.30;99.90;;;;;;5077475;28;20078;-65
2021/12/28 00:38:45;;;;;;;3.17;1.45;;;8.30;99.90;;;;;;5072280;28;20017;-65
2021/12/28 00:41:11;;;;;;;4.15;1.85;;;8.60;99.90;;;;;;5068091;28;20507;-65
2021/12/28 00:43:38;;;;;;;4.65;1.60;;;8.50;99.90;;;;;;5067245;28;20026;-65
2021/12/28 00:46:05;;;;;;;4.65;2.00;;;8.40;99.90;;;;;;5072468;28;20032;-65
2021/12/28 00:48:30;;;;;;;1.77;0.95;;;8.60;99.90;;;;;;5067750;28;20388;-65
2021/12/28 00:50:56;;;;;;;2.78;1.50;;;8.60;99.90;;;;;;5073561;28;20027;-65
2021/12/28 00:53:22;;;;;;;3.97;1.75;;;8.40;99.90;;;;;;5077468;28;20031;-66
2021/12/28 00:55:48;;;;;;;2.42;1.35;;;8.40;99.90;;;;;;5074950;28;20027;-65
2021/12/28 00:58:14;;;;;;;2.20;1.45;;;8.90;99.90;;;;;;5074750;28;20395;-65
2021/12/28 01:00:40;;;;;;;6.63;1.73;;;8.30;99.90;;;;;;5079126;28;20092;-65
2021/12/28 01:03:07;;;;;;;3.90;1.67;;;8.30;99.90;;;;;;5079043;28;20055;-65
2021/12/28 01:05:34;;;;;;;3.08;1.77;;;8.30;99.90;;;;;;5074474;28;20021;-65
2021/12/28 01:08:00;;;;;;;7.35;1.85;;;8.20;99.90;;;;;;5070496;28;20024;-65
2021/12/28 01:10:30;;;;;;;3.88;1.80;;;8.10;99.90;;;;;;5067412;28;20020;-65
2021/12/28 01:12:56;;;;;;;1.40;0.95;;;8.10;99.90;;;;;;5074841;28;20016;-65
2021/12/28 01:15:24;;;;;;;5.90;1.38;;;8.00;99.90;;;;;;5075205;28;20033;-65
2021/12/28 01:17:50;;;;;;;6.53;2.55;;;8.00;99.90;;;;;;5079096;28;20024;-65
2021/12/28 01:20:15;;;;;;;4.38;2.03;;;7.90;99.90;;;;;;5077576;28;20516;-65
2021/12/28 01:22:42;;;;;;;2.25;1.10;;;7.90;99.90;;;;;;5069073;28;20032;-65
2021/12/28 01:25:11;;;;;;;2.72;1.33;;;8.00;99.90;;;;;;5073027;28;20028;-65
2021/12/28 01:27:37;;;;;;;4.10;1.38;;;8.00;99.90;;;;;;5076140;28;20020;-65
2021/12/28 01:30:06;;;;;;;4.30;1.83;;;8.00;99.90;;;;;;5069493;28;20029;-65
2021/12/28 01:32:31;;;;;;;6.88;2.83;;;8.00;99.90;;;;;;5071636;28;20040;-65
2021/12/28 01:34:57;;;;;;;3.60;1.65;;;7.90;99.90;;;;;;5072869;28;20532;-65
2021/12/28 01:37:22;;;;;;;6.90;1.60;;;7.90;99.90;;;;;;5066297;28;20453;-65
2021/12/28 01:39:48;;;;;;;3.13;1.80;;;8.00;99.90;;;;;;5072406;28;20021;-65
2021/12/28 01:42:14;;;;;;;2.05;1.30;;;7.90;99.90;;;;;;5074503;28;20086;-65
2021/12/28 01:44:39;;;;;;;5.70;2.10;;;7.90;99.90;;;;;;5069180;28;20020;-65
2021/12/28 01:47:05;;;;;;;4.72;1.95;;;7.90;99.90;;;;;;5066607;28;20028;-65
2021/12/28 01:49:31;;;;;;;4.95;1.88;;;8.00;99.90;;;;;;5073491;28;20446;-65
2021/12/28 01:51:57;;;;;;;3.15;1.48;;;8.20;99.90;;;;;;5070491;28;20024;-65
2021/12/28 01:54:23;;;;;;;2.28;1.30;;;8.20;99.90;;;;;;5075925;28;20379;-65
2021/12/28 01:56:49;;;;;;;3.22;1.17;;;8.10;99.90;;;;;;5073212;28;20114;-65
2021/12/28 01:59:20;;;;;;;5.93;1.75;;;8.30;99.90;;;;;;5071683;28;20020;-65
2021/12/28 02:01:46;;;;;;;11.60;2.08;;;8.10;99.90;;;;;;5074840;28;20494;-65
2021/12/28 02:04:23;;;;;;;3.13;1.50;;;8.30;99.90;;;;;;5073210;28;20029;-65
2021/12/28 02:06:50;;;;;;;6.80;1.70;;;8.10;99.90;;;;;;5076499;28;20025;-65
2021/12/28 02:09:16;;;;;;;4.03;1.55;;;8.00;99.90;;;;;;5076782;28;20028;-65
2021/12/28 02:11:42;;;;;;;3.50;1.58;;;8.00;99.90;;;;;;5079470;28;20033;-65
2021/12/28 02:14:09;;;;;;;4.43;1.63;;;8.30;99.90;;;;;;5078574;28;20008;-65
2021/12/28 02:16:38;;;;;;;3.45;1.77;;;8.00;99.90;;;;;;5070281;28;20039;-65
2021/12/28 02:19:06;;;;;;;2.70;1.17;;;8.10;99.90;;;;;;5081187;28;20024;-65
2021/12/28 02:21:32;;;;;;;3.45;1.02;;;8.10;99.90;;;;;;5077329;28;20059;-65
2021/12/28 02:23:59;;;;;;;6.00;1.38;;;8.20;99.90;;;;;;5075892;28;20099;-65
2021/12/28 02:26:26;;;;;;;2.67;1.33;;;8.30;99.90;;;;;;5077541;28;20028;-65
2021/12/28 02:28:52;;;;;;;12.13;1.60;;;8.00;99.90;;;;;;5077760;28;20032;-65
2021/12/28 02:31:17;;;;;;;2.30;1.23;;;8.10;99.90;;;;;;5081546;28;20372;-66
2021/12/28 02:33:45;;;;;;;3.85;1.40;;;8.20;99.90;;;;;;5069310;28;20016;-65
2021/12/28 02:36:11;;;;;;;7.72;1.65;;;8.20;99.90;;;;;;5078609;28;20078;-65
2021/12/28 02:38:36;;;;;;;4.60;1.40;;;8.20;99.90;;;;;;5071872;28;20028;-65
2021/12/28 02:41:04;;;;;;;5.00;1.70;;;8.50;99.90;;;;;;5081298;28;20024;-65
2021/12/28 02:43:29;;;;;;;7.53;1.50;;;8.20;99.90;;;;;;5079368;28;20024;-65
2021/12/28 02:45:58;;;;;;;20.67;1.63;;;8.10;99.90;;;;;;5081328;28;20031;-66
2021/12/28 02:48:25;;;;;;;3.53;1.80;;;8.10;99.90;;;;;;5077295;28;20036;-65
2021/12/28 02:50:57;;;;;;;5.82;1.63;;;8.20;99.90;;;;;;5076405;28;20024;-66
2021/12/28 02:53:24;;;;;;;4.70;1.88;;;8.10;99.90;;;;;;5077767;28;20287;-66
2021/12/28 02:55:51;;;;;;;14.88;1.55;;;8.10;99.90;;;;;;5077058;28;20028;-66
2021/12/28 02:58:24;;;;;;;11.20;2.38;;;8.10;99.90;;;;;;5074439;28;20012;-65
2021/12/28 03:01:10;;;;;;;3.38;1.55;;;8.00;99.90;;;;;;5085493;28;20021;-65
2021/12/28 03:03:37;;;;;;;1.95;1.10;;;8.00;99.90;;;;;;5083473;28;20476;-66
2021/12/28 03:06:06;;;;;;;3.50;1.67;;;8.20;99.90;;;;;;5077934;28;20016;-66
2021/12/28 03:08:33;;;;;;;8.80;1.88;;;8.10;99.90;;;;;;5080013;28;20096;-66
2021/12/28 03:11:01;;;;;;;15.73;2.00;;;8.40;99.90;;;;;;5079298;28;20016;-66
2021/12/28 03:13:37;;;;;;;9.90;2.45;;;8.20;99.90;;;;;;5078830;28;20035;-67
2021/12/28 03:16:03;;;;;;;1.85;1.10;;;8.40;99.90;;;;;;5086007;28;20029;-65
2021/12/28 03:18:29;;;;;;;2.33;1.15;;;8.30;99.90;;;;;;5079031;28;20422;-66
2021/12/28 03:20:55;;;;;;;2.80;1.00;;;8.50;99.90;;;;;;5080725;28;20178;-66
2021/12/28 03:23:23;;;;;;;3.22;1.67;;;8.40;99.90;;;;;;5073711;28;20483;-66
2021/12/28 03:25:49;;;;;;;3.75;1.60;;;8.50;99.90;;;;;;5076774;28;20029;-66
2021/12/28 03:28:18;;;;;;;11.63;1.55;;;8.50;99.90;;;;;;5078135;28;20392;-66
2021/12/28 03:30:44;;;;;;;13.07;1.75;;;8.60;99.90;;;;;;5076678;28;20029;-66
2021/12/28 03:33:10;;;;;;;5.97;1.60;;;8.40;99.90;;;;;;5075929;28;20029;-66
2021/12/28 03:35:36;;;;;;;6.63;1.30;;;8.80;99.90;;;;;;5079657;28;20024;-66
2021/12/28 03:38:02;;;;;;;8.82;1.13;;;8.50;99.90;;;;;;5078622;28;20036;-66
2021/12/28 03:40:27;;;;;;;6.65;1.48;;;8.50;99.90;;;;;;5078070;28;20472;-66
2021/12/28 03:42:53;;;;;;;7.80;1.98;;;8.70;99.90;;;;;;5079920;28;20427;-66
2021/12/28 03:45:19;;;;;;;15.80;2.33;;;8.60;99.90;;;;;;5079772;28;20063;-66
2021/12/28 03:47:45;;;;;;;2.05;1.30;;;8.80;99.90;;;;;;5077240;28;20042;-66
2021/12/28 03:50:11;;;;;;;4.32;1.02;;;8.60;99.90;;;;;;5083482;28;20244;-66
2021/12/28 03:52:38;;;;;;;8.32;1.33;;;8.60;99.90;;;;;;5080693;28;20390;-66
2021/12/28 03:55:06;;;;;;;10.57;1.42;;;8.80;99.90;;;;;;5080024;28;20537;-66
2021/12/28 03:57:32;;;;;;;9.93;1.35;;;8.70;99.90;;;;;;5081134;28;20074;-66
2021/12/28 03:59:58;;;;;;;2.80;1.63;;;8.90;99.90;;;;;;5074454;28;20017;-66
2021/12/28 04:02:23;;;;;;;4.88;1.58;;;8.90;99.90;;;;;;5082081;28;20020;-66
2021/12/28 04:04:49;;;;;;;6.63;1.30;;;9.10;99.90;;;;;;5078468;28;20024;-66
2021/12/28 04:07:19;;;;;;;2.83;1.50;;;8.90;99.90;;;;;;5074981;28;20024;-66
2021/12/28 04:09:59;;;;;;;1.30;0.90;;;8.80;99.90;;;;;;5077938;28;20028;-66
2021/12/28 04:12:25;;;;;;;4.82;1.23;;;9.10;99.90;;;;;;5079521;28;20031;-66
2021/12/28 04:14:51;;;;;;;11.35;2.05;;;9.00;99.90;;;;;;5080133;28;20029;-66
2021/12/28 04:17:17;;;;;;;4.15;1.48;;;9.30;99.90;;;;;;5075600;28;20020;-66
2021/12/28 04:19:42;;;;;;;6.30;1.60;;;9.30;99.90;;;;;;5075994;28;20535;-66
2021/12/28 04:22:08;;;;;;;4.38;1.63;;;9.20;99.90;;;;;;5078647;28;20035;-66
2021/12/28 04:24:34;;;;;;;2.03;1.08;;;9.00;99.90;;;;;;5077325;28;20032;-66
2021/12/28 04:27:00;;;;;;;11.00;1.30;;;9.00;99.90;;;;;;5074271;28;20024;-66
2021/12/28 04:29:26;;;;;;;3.17;0.95;;;9.10;99.90;;;;;;5075516;28;20032;-67
2021/12/28 04:31:51;;;;;;;8.30;1.40;;;8.90;99.90;;;;;;5075928;28;20540;-68
2021/12/28 04:34:17;;;;;;;3.83;1.08;;;8.90;99.90;;;;;;5079544;28;20024;-67
2021/12/28 04:36:43;;;;;;;7.43;1.38;;;8.80;99.90;;;;;;5076599;28;20395;-66
2021/12/28 04:39:09;;;;;;;2.30;1.05;;;8.80;99.90;;;;;;5077030;28;20326;-66
2021/12/28 04:41:35;;;;;;;16.02;2.15;;;9.10;99.90;;;;;;5083164;28;20440;-66
2021/12/28 04:44:01;;;;;;;1.83;1.38;;;8.90;99.90;;;;;;5075707;28;20024;-66
2021/12/28 04:46:28;;;;;;;3.10;1.20;;;9.00;99.90;;;;;;5078359;28;20035;-66
2021/12/28 04:48:54;;;;;;;3.85;1.63;;;9.30;99.90;;;;;;5076599;28;20031;-66
2021/12/28 04:51:20;;;;;;;2.50;1.55;;;9.00;99.90;;;;;;5077278;28;20033;-67
2021/12/28 04:53:48;;;;;;;3.55;1.13;;;8.90;99.90;;;;;;5079742;28;20384;-66
2021/12/28 04:56:13;;;;;;;11.90;2.45;;;9.10;99.90;;;;;;5074733;28;20024;-66
2021/12/28 04:58:39;;;;;;;2.20;0.98;;;9.10;99.90;;;;;;5076171;28;20074;-67
2021/12/28 05:01:05;;;;;;;12.77;1.75;;;9.00;99.90;;;;;;5079737;28;20476;-67
2021/12/28 05:03:30;;;;;;;4.93;0.98;;;9.00;99.90;;;;;;5080229;28;20028;-67
2021/12/28 05:05:56;;;;;;;10.13;1.13;;;9.10;99.90;;;;;;5077903;28;20024;-67
2021/12/28 05:08:22;;;;;;;0.82;0.77;;;9.10;99.90;;;;;;5074938;28;20028;-67
2021/12/28 05:10:50;;;;;;;4.53;1.35;;;9.00;99.90;;;;;;5070536;28;20111;-67
2021/12/28 05:13:16;;;;;;;1.80;1.08;;;9.10;99.90;;;;;;5074304;28;20035;-67
2021/12/28 05:15:44;;;;;;;7.50;2.72;;;9.10;99.90;;;;;;5077839;28;20027;-66
2021/12/28 05:18:10;;;;;;;6.97;1.25;;;9.00;99.90;;;;;;5072380;28;20383;-66
2021/12/28 05:20:36;;;;;;;5.75;1.55;;;9.20;99.90;;;;;;5081310;28;20041;-67
2021/12/28 05:23:03;;;;;;;2.28;1.00;;;9.00;99.90;;;;;;5075045;28;20097;-67
2021/12/28 05:25:28;;;;;;;5.68;1.35;;;9.00;99.90;;;;;;5074937;28;20077;-67
2021/12/28 05:27:54;;;;;;;3.17;1.15;;;9.00;99.90;;;;;;5074549;28;20029;-66
2021/12/28 05:30:20;;;;;;;1.73;1.00;;;9.30;99.90;;;;;;5078520;28;20041;-66
2021/12/28 05:32:45;;;;;;;2.42;0.80;;;9.10;99.90;;;;;;5075376;28;20029;-66
2021/12/28 05:35:11;;;;;;;4.30;1.23;;;9.20;99.90;;;;;;5076655;28;20674;-66
2021/12/28 05:37:38;;;;;;;6.95;1.48;;;9.00;99.90;;;;;;5081002;28;20069;-66
2021/12/28 05:40:07;;;;;;;6.65;1.20;;;9.00;99.90;;;;;;5079481;28;20020;-66
2021/12/28 05:42:33;;;;;;;7.18;0.98;;;8.90;99.90;;;;;;5078194;28;20029;-66
2021/12/28 05:45:00;;;;;;;13.38;1.88;;;9.10;99.90;;;;;;5078059;28;20025;-66
2021/12/28 05:47:26;;;;;;;5.55;2.42;;;8.90;99.90;;;;;;5071935;28;20035;-66
2021/12/28 05:49:51;;;;;;;3.58;1.52;;;9.00;99.90;;;;;;5078487;28;20033;-66
2021/12/28 05:52:17;;;;;;;2.83;1.88;;;9.00;99.90;;;;;;5079706;28;20073;-66
2021/12/28 05:54:42;;;;;;;1.05;0.85;;;9.30;99.90;;;;;;5076928;28;20024;-66
2021/12/28 05:57:08;;;;;;;3.72;1.95;;;9.10;99.90;;;;;;5077491;28;20021;-66
2021/12/28 05:59:34;;;;;;;2.90;1.15;;;9.00;99.90;;;;;;5081171;28;20527;-66
2021/12/28 06:02:00;;;;;;;5.25;2.00;;;9.00;99.90;;;;;;5079306;28;20024;-66
2021/12/28 06:04:26;;;;;;;5.80;1.73;;;9.40;99.90;;;;;;5074206;28;20028;-66
2021/12/28 06:06:52;;;;;;;5.55;1.63;;;8.90;99.90;;;;;;5075787;28;20032;-66
2021/12/28 06:09:17;;;;;;;0.63;0.60;;;9.00;99.90;;;;;;5078211;28;20033;-66
2021/12/28 06:11:43;;;;;;;2.85;1.60;;;9.30;99.90;;;;;;5081912;28;20494;-66
2021/12/28 06:14:09;;;;;;;9.50;1.60;;;9.10;99.90;;;;;;5073322;28;20029;-66
2021/12/28 06:16:35;;;;;;;4.00;1.60;;;9.20;99.90;;;;;;5078080;28;20029;-66
2021/12/28 06:19:03;;;;;;;5.57;1.58;;;9.10;99.90;;;;;;5076470;28;20119;-66
2021/12/28 06:21:31;;;;;;;5.82;2.20;;;9.20;99.90;;;;;;5072561;28;20044;-66
2021/12/28 06:23:59;;;;;;;14.23;1.55;;;9.10;99.90;;;;;;5078277;28;20028;-66
2021/12/28 06:26:28;;;;;;;3.17;1.80;;;9.20;99.90;;;;;;5073032;28;20021;-66
2021/12/28 06:28:54;;;;;;;1.50;0.95;;;9.10;99.90;;;;;;5079393;28;20105;-66
2021/12/28 06:31:20;;;;;;;3.97;1.42;;;9.10;99.90;;;;;;5074002;28;20035;-66
2021/12/28 06:33:45;;;;;;;2.25;1.10;;;9.10;99.90;;;;;;5070937;28;20442;-66
2021/12/28 06:36:11;;;;;;;3.20;1.40;;;9.10;99.90;;;;;;5083900;28;20071;-66
2021/12/28 06:38:37;;;;;;;2.22;1.15;;;9.50;99.90;;;;;;5078063;28;20042;-66
2021/12/28 06:41:02;;;;;;;2.72;1.08;;;9.30;99.90;;;;;;5083774;28;20025;-67
2021/12/28 06:43:28;;;;;;;2.83;0.93;;;9.30;99.90;;;;;;5078891;28;20084;-66
2021/12/28 06:45:55;;;;;;;7.63;2.22;;;9.30;99.90;;;;;;5077357;28;20067;-66
2021/12/28 06:48:21;;;;;;;6.20;1.42;;;9.40;99.90;;;;;;5080652;28;20032;-66
2021/12/28 06:50:47;;;;;;;2.50;1.05;;;9.40;99.90;;;;;;5077719;28;20152;-66
2021/12/28 06:53:13;;;;;;;3.83;1.45;;;9.30;99.90;;;;;;5079241;28;20045;-66
2021/12/28 06:55:39;;;;;;;1.73;1.08;;;9.30;99.90;;;;;;5080143;28;20039;-66
2021/12/28 06:58:05;;;;;;;2.83;1.65;;;9.60;99.90;;;;;;5076962;28;20511;-66
2021/12/28 07:00:32;;;;;;;3.67;0.90;;;9.20;99.90;;;;;;5082665;28;20024;-66
2021/12/28 07:02:57;;;;;;;2.90;1.25;;;9.30;99.90;;;;;;5088040;28;20432;-66
2021/12/28 07:05:23;;;;;;;4.05;1.10;;;9.40;99.90;;;;;;5074505;28;20146;-66
2021/12/28 07:07:49;;;;;;;5.40;1.30;;;9.20;99.90;;;;;;5081261;28;20111;-66
2021/12/28 07:10:14;;;;;;;2.53;0.88;;;9.30;99.90;;;;;;5082346;28;20028;-66
2021/12/28 07:12:41;;;;;;;2.70;1.05;;;9.20;99.90;;;;;;5085403;28;20024;-66
2021/12/28 07:15:07;;;;;;;2.20;0.85;;;9.30;99.90;;;;;;5073686;28;20043;-66
2021/12/28 07:17:33;;;;;;;1.85;0.98;;;9.20;99.90;;;;;;5081501;28;20158;-66
2021/12/28 07:19:58;;;;;;;3.75;1.02;;;9.20;99.90;;;;;;5081898;28;20120;-66
2021/12/28 07:22:24;;;;;;;4.63;1.05;;;9.30;99.90;;;;;;5084296;28;20028;-66
2021/12/28 07:24:50;;;;;;;4.60;1.13;;;9.20;99.90;;;;;;5084118;28;20026;-66
2021/12/28 07:27:15;;;;;;;1.63;0.85;;;9.20;99.90;;;;;;5078514;28;20027;-67
2021/12/28 07:29:41;;;;;;;1.98;1.00;;;9.40;99.90;;;;;;5081358;28;20374;-67
2021/12/28 07:32:08;;;;;;;2.17;0.93;;;9.20;99.90;;;;;;5075424;28;20017;-67
2021/12/28 07:34:34;;;;;;;9.80;1.15;;;9.10;99.90;;;;;;5082329;28;20048;-67
2021/12/28 07:37:00;;;;;;;3.80;1.30;;;9.00;99.90;;;;;;5073654;28;20086;-67
2021/12/28 07:39:26;;;;;;;0.93;0.75;;;9.20;99.90;;;;;;5082636;28;20020;-67
2021/12/28 07:41:51;;;;;;;2.45;1.85;;;9.20;99.90;;;;;;5079022;28;20024;-67
2021/12/28 07:44:17;;;;;;;1.20;0.85;;;9.00;99.90;;;;;;5081875;28;20472;-67
2021/12/28 07:46:43;;;;;;;3.92;1.52;;;9.10;99.90;;;;;;5077561;28;20039;-67
2021/12/28 07:49:09;;;;;;;2.10;1.10;;;9.20;99.90;;;;;;5075880;28;20116;-67
2021/12/28 07:51:34;;;;;;;2.50;0.95;;;9.10;99.90;;;;;;5074623;28;20113;-67
2021/12/28 07:54:00;;;;;;;2.95;1.33;;;9.10;99.90;;;;;;5076189;28;20472;-67
2021/12/28 07:56:26;;;;;;;0.82;0.70;;;9.00;99.90;;;;;;5074361;28;20021;-67
2021/12/28 07:58:52;;;;;;;2.20;0.90;;;9.10;99.90;;;;;;5077308;28;20400;-67
2021/12/28 08:01:17;;;;;;;3.45;1.30;;;9.40;99.90;;;;;;5082522;28;20020;-67
2021/12/28 08:03:43;;;;;;;2.03;1.02;;;9.10;99.90;;;;;;5084384;28;20027;-67
2021/12/28 08:06:09;;;;;;;5.53;0.95;;;9.00;99.90;;;;;;5084325;28;20035;-67
2021/12/28 08:08:35;;;;;;;4.15;1.25;;;9.20;99.90;;;;;;5078397;28;20025;-67
2021/12/28 08:11:01;;;;;;;1.67;0.90;;;8.90;99.90;;;;;;5077096;28;20032;-67
2021/12/28 08:13:27;;;;;;;1.08;0.93;;;8.90;99.90;;;;;;5076741;28;20012;-67
2021/12/28 08:15:53;;;;;;;7.32;1.73;;;9.00;99.90;;;;;;5073085;28;20100;-67
2021/12/28 08:18:18;;;;;;;0.90;0.70;;;9.40;99.90;;;;;;5077135;28;20016;-67
2021/12/28 08:20:44;;;;;;;1.25;0.90;;;9.20;99.90;;;;;;5074656;28;20131;-67
2021/12/28 08:23:10;;;;;;;1.77;1.00;;;9.10;99.90;;;;;;5075371;28;20035;-68
2021/12/28 08:25:35;;;;;;;1.13;0.75;;;9.40;99.90;;;;;;5072211;28;20074;-67
2021/12/28 08:28:04;;;;;;;2.28;0.85;;;9.30;99.90;;;;;;5077198;28;20032;-66
2021/12/28 08:30:31;;;;;;;1.65;0.80;;;9.10;99.90;;;;;;5078718;28;20078;-67
2021/12/28 08:32:57;;;;;;;4.28;1.13;;;9.10;99.90;;;;;;5080284;28;20024;-68
2021/12/28 08:35:23;;;;;;;0.80;0.70;;;9.20;99.90;;;;;;5081319;28;20511;-68
2021/12/28 08:37:48;;;;;;;1.40;0.82;;;9.50;99.90;;;;;;5085304;28;20029;-68
2021/12/28 08:40:16;;;;;;;1.23;0.80;;;9.70;99.90;;;;;;5076018;28;20426;-67
2021/12/28 08:42:41;;;;;;;0.60;0.60;;;9.20;99.90;;;;;;5078379;28;20029;-68
2021/12/28 08:45:07;;;;;;;0.80;0.80;;;9.30;99.90;;;;;;5075627;28;20508;-67
2021/12/28 08:47:35;;;;;;;1.90;0.98;;;9.30;99.90;;;;;;5077223;28;20039;-68
2021/12/28 08:50:00;;;;;;;3.60;1.00;;;9.40;99.90;;;;;;5080917;28;20056;-68
2021/12/28 08:52:26;;;;;;;1.50;0.77;;;9.60;99.90;;;;;;5070347;28;20044;-68
2021/12/28 08:54:53;;;;;;;2.53;0.70;;;9.90;99.90;;;;;;5078324;28;20039;-68
2021/12/28 08:57:20;;;;;;;0.70;0.70;;;9.70;99.90;;;;;;5075126;28;20036;-68
2021/12/28 08:59:46;;;;;;;0.77;0.60;;;9.80;99.90;;;;;;5077182;28;20027;-67
2021/12/28 09:02:12;;;;;;;1.17;0.85;;;9.80;99.90;;;;;;5083092;28;20380;-67
2021/12/28 09:04:43;;;;;;;1.67;0.73;;;10.00;99.90;;;;;;5080301;28;20024;-68
2021/12/28 09:07:11;;;;;;;;;;;10.00;99.90;;;;;;5082330;28;20031;-68
2021/12/28 09:09:36;;;;;;;1.13;0.73;;;10.00;99.90;;;;;;5077529;28;20353;-67
2021/12/28 09:12:03;;;;;;;1.95;1.00;;;9.90;99.90;;;;;;5082403;28;20028;-67
2021/12/28 09:14:28;;;;;;;1.83;0.98;;;9.90;99.90;;;;;;5078667;28;20034;-67
2021/12/28 09:16:55;;;;;;;0.95;0.70;;;10.00;99.90;;;;;;5080416;28;20020;-67
2021/12/28 09:19:20;;;;;;;1.08;0.70;;;10.00;99.90;;;;;;5079666;28;20077;-67
2021/12/28 09:21:46;;;;;;;1.02;0.70;;;10.20;99.90;;;;;;5077050;28;20044;-67
2021/12/28 09:24:11;;;;;;;1.67;0.80;;;10.10;99.90;;;;;;5079564;28;20190;-67
2021/12/28 09:26:37;;;;;;;2.40;0.85;;;10.20;99.90;;;;;;5073729;28;20040;-67
2021/12/28 09:29:03;;;;;;;2.20;1.00;;;10.30;99.90;;;;;;5075932;28;20103;-67
2021/12/28 09:31:29;;;;;;;1.00;0.80;;;9.90;99.90;;;;;;5067082;28;20032;-67
2021/12/28 09:33:55;;;;;;;1.50;0.80;;;9.90;99.90;;;;;;5072115;28;20034;-67
2021/12/28 09:36:20;;;;;;;1.42;0.70;;;10.10;99.90;;;;;;5074667;28;20026;-68
2021/12/28 09:38:46;;;;;;;1.95;0.90;;;10.50;99.90;;;;;;5071365;28;20028;-68
2021/12/28 09:41:14;;;;;;;1.65;0.95;;;10.90;99.90;;;;;;5077613;28;20139;-68
2021/12/28 09:43:41;;;;;;;2.40;0.70;;;10.70;99.90;;;;;;5076510;28;20110;-68
2021/12/28 09:46:07;;;;;;;3.60;1.08;;;10.50;99.90;;;;;;5076437;28;20024;-67
2021/12/28 09:48:34;;;;;;;2.65;0.82;;;10.60;99.90;;;;;;5075645;28;20511;-67
2021/12/28 09:51:00;;;;;;;1.27;0.90;;;10.60;99.90;;;;;;5075902;28;20746;-68
2021/12/28 09:53:26;;;;;;;0.60;0.60;;;10.30;99.90;;;;;;5079502;28;20031;-67
2021/12/28 09:55:52;;;;;;;1.17;0.77;;;10.20;99.90;;;;;;5077375;28;20098;-67
2021/12/28 09:58:18;;;;;;;2.22;1.08;;;10.20;99.90;;;;;;5079170;28;20078;-67
2021/12/28 10:00:44;;;;;;;0.70;0.70;;;10.20;99.90;;;;;;5072790;28;20017;-67
2021/12/28 10:03:09;;;;;;;2.05;1.10;;;10.30;99.90;;;;;;5078709;28;20028;-66
2021/12/28 10:05:35;;;;;;;3.83;1.40;;;10.40;99.90;;;;;;5073495;28;20064;-67
2021/12/28 10:08:04;;;;;;;0.70;0.70;;;10.40;99.90;;;;;;5071653;28;20032;-67
2021/12/28 10:10:39;;;;;;;0.60;0.60;;;10.50;99.90;;;;;;5085466;28;20411;-67
2021/12/28 10:13:09;;;;;;;1.50;0.90;;;10.50;99.90;;;;;;5077571;28;20532;-67
2021/12/28 10:15:38;;;;;;;2.55;0.95;;;10.50;99.90;;;;;;5083355;28;20024;-67
2021/12/28 10:18:07;;;;;;;0.88;0.73;;;10.60;99.90;;;;;;5079997;28;20541;-66
2021/12/28 10:20:49;;;;;;;1.00;0.70;;;10.40;99.90;;;;;;5080974;28;20140;-68
2021/12/28 10:23:25;;;;;;;0.98;0.70;;;10.50;99.90;;;;;;5081820;28;20038;-68
2021/12/28 10:25:53;;;;;;;0.60;0.60;;;10.50;99.90;;;;;;5079651;28;20498;-68
2021/12/28 10:28:31;;;;;;;1.05;0.70;;;10.60;99.90;;;;;;5082098;28;20020;-68
2021/12/28 10:31:02;;;;;;;0.68;0.55;;;10.80;99.90;;;;;;5077854;28;20024;-68
2021/12/28 10:33:29;;;;;;;1.30;0.60;;;10.70;99.90;;;;;;5079784;28;20024;-68
2021/12/28 10:35:58;;;;;;;1.50;0.80;;;10.70;99.90;;;;;;5075634;28;20073;-68
2021/12/28 10:38:27;;;;;;;0.60;0.60;;;10.80;99.90;;;;;;5082505;28;20412;-69
2021/12/28 10:40:59;;;;;;;1.17;0.60;;;10.90;99.90;;;;;;5079690;28;20056;-68
2021/12/28 10:43:30;;;;;;;0.63;0.60;;;10.90;99.90;;;;;;5079718;28;20013;-68
2021/12/28 10:46:00;;;;;;;0.60;0.60;;;10.70;99.90;;;;;;5077272;28;20045;-68
2021/12/28 10:48:37;;;;;;;0.60;0.60;;;10.90;99.90;;;;;;5084767;28;20016;-68
2021/12/28 10:51:04;;;;;;;1.55;0.70;;;10.80;99.90;;;;;;5075422;28;20104;-68
2021/12/28 10:53:40;;;;;;;0.85;0.60;;;10.70;99.90;;;;;;5077415;28;20048;-68
2021/12/28 10:56:08;;;;;;;2.35;0.65;;;10.60;99.90;;;;;;5081799;28;20560;-67
2021/12/28 10:58:41;;;;;;;5.05;0.70;;;10.80;99.90;;;;;;5077957;28;20031;-68
2021/12/28 11:01:11;;;;;;;2.33;0.70;;;10.70;99.90;;;;;;5077814;28;20111;-68
2021/12/28 11:03:38;;;;;;;;;;;10.60;99.90;;;;;;5094523;28;20471;-69
2021/12/28 11:06:12;;;;;;;0.70;0.70;;;10.70;99.90;;;;;;5084850;28;19983;-68
2021/12/28 11:08:38;;;;;;;0.75;0.70;;;11.00;99.90;;;;;;5079441;28;20016;-68
2021/12/28 11:11:08;;;;;;;0.57;0.57;;;10.60;99.90;;;;;;5083341;28;20031;-68
2021/12/28 11:13:34;;;;;;;;;;;10.70;99.90;;;;;;5080090;28;20029;-68
2021/12/28 11:16:01;;;;;;;0.88;0.63;;;10.60;99.90;;;;;;5078730;28;19909;-68
2021/12/28 11:18:34;;;;;;;1.02;0.60;;;10.50;99.90;;;;;;5080165;28;20031;-68
2021/12/28 11:21:27;;;;;;;1.33;0.80;;;10.30;99.90;;;;;;5074831;28;20506;-67
2021/12/28 11:24:10;;;;;;;0.60;0.60;;;10.30;99.90;;;;;;5084176;28;20028;-67
2021/12/28 11:26:38;;;;;;;1.55;0.63;;;10.60;99.90;;;;;;5079504;28;20511;-67
2021/12/28 11:29:04;;;;;;;0.70;0.70;;;10.70;99.90;;;;;;5081100;28;20023;-68
2021/12/28 11:31:55;;;;;;;0.70;0.60;;;10.80;99.90;;;;;;5076935;28;20466;-67
2021/12/28 11:34:32;;;;;;;1.05;0.70;;;10.60;99.90;;;;;;5084816;28;20247;-67
2021/12/28 11:37:10;;;;;;;0.60;0.60;;;10.70;99.90;;;;;;5080303;28;20028;-67
2021/12/28 11:39:44;;;;;;;1.30;0.70;;;10.70;99.90;;;;;;5079502;28;20149;-67
2021/12/28 11:42:11;;;;;;;2.00;0.70;;;11.10;99.90;;;;;;5078525;28;20481;-68
2021/12/28 11:44:38;;;;;;;1.05;0.80;;;10.80;99.90;;;;;;5080945;28;20043;-67
2021/12/28 11:47:06;;;;;;;0.55;0.55;;;10.90;99.90;;;;;;5075936;28;20374;-67
2021/12/28 11:49:32;;;;;;;0.70;0.60;;;10.80;99.90;;;;;;5081384;28;20036;-67
2021/12/28 11:52:00;;;;;;;1.33;0.65;;;10.80;99.90;;;;;;5078408;28;20518;-67
2021/12/28 11:54:30;;;;;;;0.60;0.60;;;11.00;99.90;;;;;;5080960;28;20078;-67
2021/12/28 11:57:00;;;;;;;6.88;0.80;;;10.70;99.90;;;;;;5081375;28;20021;-67
2021/12/28 11:59:30;;;;;;;0.50;0.50;;;10.60;99.90;;;;;;5086239;28;20020;-68
2021/12/28 12:02:07;;;;;;;0.60;0.60;;;10.50;99.90;;;;;;5079822;28;20034;-69
2021/12/28 12:04:33;;;;;;;0.60;0.60;;;10.40;99.90;;;;;;5075726;28;20162;-68
2021/12/28 12:07:01;;;;;;;0.75;0.70;;;10.40;99.90;;;;;;5075324;28;20028;-68
2021/12/28 12:09:27;;;;;;;0.90;0.60;;;10.50;99.90;;;;;;5077224;28;20034;-68
2021/12/28 12:12:09;;;;;;;0.70;0.70;;;10.20;99.90;;;;;;5078880;28;20046;-68
2021/12/28 12:14:54;;;;;;;0.75;0.65;;;10.20;99.90;;;;;;5080458;28;20019;-68
2021/12/28 12:17:35;;;;;;;2.80;0.85;;;10.30;99.90;;;;;;5073171;28;20016;-68
2021/12/28 12:20:09;;;;;;;1.85;0.93;;;10.40;99.90;;;;;;5074686;28;20124;-67
2021/12/28 12:22:38;;;;;;;1.30;0.85;;;10.40;99.90;;;;;;5080212;28;20518;-67
2021/12/28 12:25:24;;;;;;;0.90;0.70;;;10.40;99.90;;;;;;5080046;28;20103;-67
2021/12/28 12:27:54;;;;;;;1.95;0.70;;;10.50;99.90;;;;;;5083116;28;20036;-68
2021/12/28 12:30:20;;;;;;;0.60;0.60;;;10.50;99.90;;;;;;5076318;28;20082;-68
2021/12/28 12:33:06;;;;;;;0.68;0.68;;;10.60;99.90;;;;;;5075442;28;20025;-68
2021/12/28 12:35:33;;;;;;;0.85;0.80;;;10.60;99.90;;;;;;5079674;28;20046;-68
2021/12/28 12:38:19;;;;;;;0.80;0.60;;;10.70;99.90;;;;;;5078602;28;20052;-69
2021/12/28 12:41:05;;;;;;;1.27;0.85;;;10.60;99.90;;;;;;5066273;28;20039;-68
2021/12/28 12:43:39;;;;;;;0.65;0.60;;;10.40;99.90;;;;;;5078952;28;20024;-68
2021/12/28 12:46:23;;;;;;;0.90;0.68;;;10.30;99.90;;;;;;5085036;28;20032;-68
2021/12/28 12:49:00;;;;;;;1.52;0.88;;;10.10;99.90;;;;;;5077508;28;20679;-68
2021/12/28 12:51:32;;;;;;;0.68;0.68;;;10.10;99.90;;;;;;5080692;28;20020;-67
2021/12/28 12:54:23;;;;;;;1.23;0.80;;;10.10;99.90;;;;;;5087323;28;20506;-67
2021/12/28 12:56:51;;;;;;;1.27;0.70;;;10.00;99.90;;;;;;5081727;28;20027;-67
2021/12/28 12:59:29;;;;;;;1.05;0.70;;;10.30;99.90;;;;;;5078107;28;20035;-67
2021/12/28 13:02:02;;;;;;;0.60;0.60;;;9.90;99.90;;;;;;5082124;28;20383;-67